Time;durP1;ratioP1;P1;durP2;ratioP2;P2;SDS_P1;SDS_P2;PMS_P1;PMS_P2;Temp;Humidity;BMP_temperature;BMP_pressure;BME280_temperature;BME280_humidity;BME280_pressure;Samples;Min_cycle;Max_cycle;Signal;HPM_P1;HPM_P2
2024/01/02 00:00:21;;;;;;;4.35;1.50;;;;;;;9.68;64.42;100449.81;5038844;28;20024;-40
2024/01/02 00:02:46;;;;;;;6.13;1.65;;;;;;;9.75;63.99;100452.00;5043462;28;21796;-39
2024/01/02 00:05:11;;;;;;;7.30;2.13;;;;;;;9.72;64.16;100452.19;5041621;28;20032;-39
2024/01/02 00:07:37;;;;;;;7.97;2.28;;;;;;;9.70;63.95;100451.41;5041624;28;20034;-39
2024/01/02 00:10:02;;;;;;;4.80;2.15;;;;;;;9.62;63.87;100451.00;5044178;28;20036;-39
2024/01/02 00:12:28;;;;;;;4.45;1.60;;;;;;;9.70;64.13;100448.78;5042316;28;20029;-39
2024/01/02 00:14:53;;;;;;;8.25;1.88;;;;;;;9.76;63.70;100452.84;5055405;28;20542;-39
2024/01/02 00:17:18;;;;;;;5.07;1.90;;;;;;;9.58;63.95;100452.16;5042832;28;20104;-39
2024/01/02 00:19:44;;;;;;;5.03;1.92;;;;;;;9.59;64.21;100452.03;5044108;28;20067;-39
2024/01/02 00:22:09;;;;;;;8.10;1.70;;;;;;;9.63;64.12;100450.06;5038217;28;20032;-39
2024/01/02 00:24:35;;;;;;;5.40;1.73;;;;;;;9.70;64.11;100440.91;5042586;28;20430;-39
2024/01/02 00:27:02;;;;;;;8.27;1.98;;;;;;;9.68;64.06;100440.16;5041982;28;20029;-39
2024/01/02 00:29:29;;;;;;;4.22;2.10;;;;;;;9.70;63.95;100427.78;5042758;28;20033;-39
2024/01/02 00:31:54;;;;;;;3.78;2.20;;;;;;;9.74;63.99;100431.06;5040260;28;20037;-39
2024/01/02 00:34:20;;;;;;;7.45;2.00;;;;;;;9.75;63.64;100428.34;5045040;28;20032;-39
2024/01/02 00:36:45;;;;;;;5.47;1.85;;;;;;;9.54;63.81;100421.72;5041341;28;20033;-39
2024/01/02 00:39:11;;;;;;;6.43;2.13;;;;;;;9.47;63.94;100426.50;5039935;28;20041;-39
2024/01/02 00:41:36;;;;;;;6.05;2.13;;;;;;;9.48;64.10;100427.31;5037610;28;20028;-39
2024/01/02 00:44:02;;;;;;;6.28;2.20;;;;;;;9.51;63.74;100419.28;5039568;28;20048;-39
2024/01/02 00:46:27;;;;;;;8.43;1.80;;;;;;;9.45;64.01;100428.34;5037289;28;20061;-39
2024/01/02 00:48:52;;;;;;;5.55;1.95;;;;;;;9.41;64.34;100429.47;5043303;28;20033;-40
2024/01/02 00:51:18;;;;;;;7.18;2.00;;;;;;;9.67;64.09;100427.94;5033840;28;20056;-39
2024/01/02 00:53:43;;;;;;;4.82;1.98;;;;;;;9.28;64.75;100426.72;5057108;28;20155;-39
2024/01/02 00:56:08;;;;;;;10.23;1.92;;;;;;;9.43;64.60;100423.22;5042881;28;20106;-39
2024/01/02 00:58:34;;;;;;;8.00;2.90;;;;;;;9.60;64.14;100418.75;5040525;28;20035;-39
2024/01/02 01:00:59;;;;;;;7.20;2.50;;;;;;;9.61;64.06;100415.16;5040336;28;20525;-40
2024/01/02 01:03:25;;;;;;;4.72;1.88;;;;;;;9.21;64.68;100420.13;5041582;28;20029;-39
2024/01/02 01:05:50;;;;;;;7.43;2.38;;;;;;;9.32;64.48;100415.09;5042754;28;20078;-39
2024/01/02 01:08:15;;;;;;;6.03;2.35;;;;;;;9.52;63.99;100413.09;5037816;28;20374;-39
2024/01/02 01:10:41;;;;;;;6.93;2.40;;;;;;;9.60;63.99;100418.75;5045679;28;20506;-39
2024/01/02 01:13:06;;;;;;;4.97;1.85;;;;;;;9.37;64.47;100423.56;5039624;28;20024;-39
2024/01/02 01:15:31;;;;;;;3.45;1.67;;;;;;;9.17;64.61;100434.34;5037170;28;20040;-39
2024/01/02 01:17:57;;;;;;;4.00;2.00;;;;;;;9.21;64.33;100430.63;5038878;28;20112;-39
2024/01/02 01:20:22;;;;;;;4.90;1.73;;;;;;;9.48;64.39;100429.94;5038071;28;20037;-40
2024/01/02 01:22:48;;;;;;;5.78;1.77;;;;;;;9.43;64.30;100433.72;5041886;28;20148;-39
2024/01/02 01:25:13;;;;;;;4.40;1.85;;;;;;;9.43;64.44;100428.47;5034866;28;20724;-39
2024/01/02 01:27:38;;;;;;;4.75;1.90;;;;;;;9.61;63.94;100425.66;5038964;28;20029;-39
2024/01/02 01:30:04;;;;;;;7.00;1.60;;;;;;;9.65;63.91;100432.44;5034926;28;20029;-39
2024/01/02 01:32:29;;;;;;;6.57;1.85;;;;;;;9.71;63.82;100429.47;5038007;28;20403;-39
2024/01/02 01:34:55;;;;;;;9.38;1.85;;;;;;;9.58;63.79;100428.50;5041022;28;20052;-39
2024/01/02 01:37:20;;;;;;;2.95;1.27;;;;;;;9.58;63.57;100425.88;5042600;28;20029;-39
2024/01/02 01:39:46;;;;;;;5.57;1.77;;;;;;;9.55;63.95;100428.69;5041681;28;20419;-39
2024/01/02 01:42:11;;;;;;;6.75;1.70;;;;;;;9.74;63.91;100431.91;5039504;28;20029;-39
2024/01/02 01:44:36;;;;;;;1999.90;999.90;;;;;;;9.84;63.59;100431.34;5039533;28;20044;-40
2024/01/02 01:47:04;;;;;;;6.13;1.70;;;;;;;9.73;63.25;100424.97;5040765;28;20044;-40
2024/01/02 01:49:30;;;;;;;7.55;1.77;;;;;;;9.77;63.40;100431.72;5042337;28;20029;-40
2024/01/02 01:51:57;;;;;;;5.43;1.33;;;;;;;9.63;63.38;100426.44;5042030;28;20037;-40
2024/01/02 01:54:23;;;;;;;7.22;2.65;;;;;;;9.69;63.46;100423.44;5043235;28;20017;-40
2024/01/02 01:56:50;;;;;;;7.18;2.50;;;;;;;9.65;63.58;100431.63;5038082;28;20029;-39
2024/01/02 01:59:15;;;;;;;6.72;1.75;;;;;;;9.63;63.86;100429.06;5042911;28;20029;-39
2024/01/02 02:01:43;;;;;;;6.22;2.15;;;;;;;9.70;63.60;100429.53;5036652;28;20028;-39
2024/01/02 02:04:09;;;;;;;7.82;2.33;;;;;;;9.68;63.51;100427.00;5042113;28;20032;-40
2024/01/02 02:06:34;;;;;;;3.33;2.05;;;;;;;9.55;63.86;100421.63;5043556;28;20044;-40
2024/01/02 02:09:00;;;;;;;8.85;1.80;;;;;;;9.70;63.31;100425.16;5040631;28;20032;-40
2024/01/02 02:11:26;;;;;;;7.63;1.70;;;;;;;9.64;63.65;100429.91;5036744;28;20114;-39
2024/01/02 02:13:51;;;;;;;4.35;1.85;;;;;;;9.66;63.08;100428.88;5043025;28;20029;-39
2024/01/02 02:16:17;;;;;;;9.50;1.83;;;;;;;9.82;63.09;100428.84;5040469;28;20021;-39
2024/01/02 02:18:42;;;;;;;5.60;1.75;;;;;;;9.76;62.94;100429.19;5043779;28;20230;-39
2024/01/02 02:21:07;;;;;;;3.45;1.67;;;;;;;9.71;62.87;100418.97;5043629;28;20052;-40
2024/01/02 02:23:33;;;;;;;3.92;1.58;;;;;;;9.80;62.77;100416.69;5047497;28;20052;-40
2024/01/02 02:25:58;;;;;;;4.55;1.48;;;;;;;9.68;63.02;100421.75;5042751;28;20033;-39
2024/01/02 02:28:24;;;;;;;11.55;2.55;;;;;;;9.82;62.51;100413.06;5045315;28;20120;-40
2024/01/02 02:30:49;;;;;;;3.53;1.60;;;;;;;9.94;62.60;100421.16;5041793;28;20045;-40
2024/01/02 02:33:14;;;;;;;4.22;1.50;;;;;;;9.94;62.29;100416.72;5034524;28;20117;-40
2024/01/02 02:35:40;;;;;;;6.05;1.85;;;;;;;9.99;62.18;100417.28;5045836;28;20060;-40
2024/01/02 02:38:05;;;;;;;5.68;2.75;;;;;;;9.96;62.07;100409.59;5042589;28;20045;-40
2024/01/02 02:40:30;;;;;;;8.68;1.95;;;;;;;9.95;62.69;100422.84;5044292;28;20107;-39
2024/01/02 02:42:56;;;;;;;8.50;1.52;;;;;;;9.86;62.52;100418.97;5037036;28;20051;-40
2024/01/02 02:45:21;;;;;;;9.00;1.60;;;;;;;9.87;62.22;100423.31;5042615;28;20132;-40
2024/01/02 02:47:46;;;;;;;8.68;1.80;;;;;;;9.80;62.68;100427.22;5045861;28;20041;-39
2024/01/02 02:50:12;;;;;;;10.93;1.90;;;;;;;9.85;62.67;100419.91;5043050;28;20060;-39
2024/01/02 02:52:37;;;;;;;10.38;1.77;;;;;;;9.86;62.53;100418.97;5045662;28;20476;-40
2024/01/02 02:55:03;;;;;;;6.53;1.48;;;;;;;9.79;62.18;100417.63;5049895;28;20438;-40
2024/01/02 02:57:29;;;;;;;4.30;1.98;;;;;;;9.83;62.55;100412.09;5046756;28;20107;-40
2024/01/02 02:59:54;;;;;;;5.00;1.58;;;;;;;9.62;62.88;100411.59;5046498;28;20157;-39
2024/01/02 03:02:19;;;;;;;8.20;1.83;;;;;;;9.73;63.51;100414.47;5045024;28;20523;-39
2024/01/02 03:04:45;;;;;;;7.30;1.65;;;;;;;9.73;62.85;100411.84;5044425;28;20037;-40
2024/01/02 03:07:10;;;;;;;2.15;0.88;;;;;;;9.75;62.30;100409.97;5040869;28;20029;-40
2024/01/02 03:09:37;;;;;;;3.00;1.40;;;;;;;9.83;62.29;100398.97;5049256;28;20683;-39
2024/01/02 03:12:03;;;;;;;4.82;2.00;;;;;;;9.84;61.86;100399.81;5045524;28;20025;-40
2024/01/02 03:14:28;;;;;;;5.93;1.42;;;;;;;9.65;61.98;100400.09;5042402;28;20025;-40
2024/01/02 03:16:53;;;;;;;6.35;1.42;;;;;;;9.76;62.45;100397.66;5037120;28;20468;-39
2024/01/02 03:19:19;;;;;;;4.57;0.90;;;;;;;9.82;61.92;100401.69;5048307;28;20037;-41
2024/01/02 03:21:44;;;;;;;4.53;2.03;;;;;;;9.89;62.16;100393.34;5047100;28;20033;-39
2024/01/02 03:24:10;;;;;;;4.45;1.58;;;;;;;9.93;61.82;100404.50;5046079;28;20489;-39
2024/01/02 03:26:35;;;;;;;10.13;1.80;;;;;;;9.89;62.10;100403.03;5049106;28;20043;-39
2024/01/02 03:29:01;;;;;;;3.53;1.10;;;;;;;9.94;62.28;100398.31;5045062;28;20041;-40
2024/01/02 03:31:26;;;;;;;8.20;1.67;;;;;;;10.00;62.11;100395.34;5041270;28;20845;-39
2024/01/02 03:33:51;;;;;;;4.85;1.88;;;;;;;10.03;61.77;100394.28;5043312;28;20068;-40
2024/01/02 03:36:18;;;;;;;7.45;2.22;;;;;;;10.09;61.81;100393.06;5044653;28;20033;-40
2024/01/02 03:38:48;;;;;;;3.53;1.85;;;;;;;10.11;61.96;100393.81;5044253;28;20036;-40
2024/01/02 03:41:13;;;;;;;7.10;1.80;;;;;;;10.13;61.75;100381.44;5040989;28;20087;-40
2024/01/02 03:43:39;;;;;;;4.45;1.73;;;;;;;10.15;61.94;100383.00;5043434;28;20024;-40
2024/01/02 03:46:05;;;;;;;2.67;1.42;;;;;;;10.16;61.72;100374.19;5041969;28;20036;-40
2024/01/02 03:48:30;;;;;;;3.17;1.42;;;;;;;10.17;61.47;100359.28;5046558;28;20158;-40
2024/01/02 03:50:55;;;;;;;5.68;1.35;;;;;;;10.20;61.78;100364.34;5039482;28;20075;-40
2024/01/02 03:53:21;;;;;;;7.05;1.63;;;;;;;10.20;61.78;100357.28;5045357;28;20123;-40
2024/01/02 03:55:46;;;;;;;6.70;2.40;;;;;;;10.20;61.83;100359.09;5040571;28;20384;-40
2024/01/02 03:58:11;;;;;;;5.55;1.52;;;;;;;10.25;61.66;100351.75;5047721;28;20031;-39
2024/01/02 04:00:37;;;;;;;10.38;2.85;;;;;;;10.16;61.69;100352.31;5040147;28;20069;-39
2024/01/02 04:03:02;;;;;;;6.25;2.28;;;;;;;10.18;61.37;100339.94;5038887;28;20502;-39
2024/01/02 04:05:29;;;;;;;7.10;1.92;;;;;;;10.16;61.29;100339.19;5046382;28;20060;-40
2024/01/02 04:07:54;;;;;;;5.68;1.73;;;;;;;10.20;61.44;100335.44;5042711;28;20060;-40
2024/01/02 04:10:20;;;;;;;3.35;1.42;;;;;;;10.21;61.41;100335.31;5043833;28;20065;-40
2024/01/02 04:12:45;;;;;;;9.75;1.70;;;;;;;10.22;61.36;100329.13;5041560;28;20041;-40
2024/01/02 04:15:10;;;;;;;5.55;1.63;;;;;;;10.20;61.41;100331.00;5040405;28;20546;-40
2024/01/02 04:17:36;;;;;;;7.30;1.58;;;;;;;10.17;61.20;100325.94;5040341;28;20116;-39
2024/01/02 04:20:01;;;;;;;4.43;1.80;;;;;;;10.11;61.07;100322.84;5042198;28;20033;-40
2024/01/02 04:22:27;;;;;;;3.95;1.52;;;;;;;10.14;61.22;100322.66;5040337;28;20029;-40
2024/01/02 04:24:52;;;;;;;5.15;1.60;;;;;;;10.13;61.00;100313.06;5047156;28;20067;-40
2024/01/02 04:27:17;;;;;;;6.10;1.67;;;;;;;10.03;61.05;100320.69;5042413;28;20028;-40
2024/01/02 04:29:43;;;;;;;5.97;1.58;;;;;;;10.04;61.42;100304.84;5044413;28;20091;-39
2024/01/02 04:32:08;;;;;;;10.48;2.65;;;;;;;10.06;61.23;100296.84;5044548;28;20037;-40
2024/01/02 04:34:33;;;;;;;4.00;1.80;;;;;;;10.03;61.19;100305.78;5044746;28;20083;-40
2024/01/02 04:36:59;;;;;;;4.63;2.05;;;;;;;10.00;61.36;100290.19;5044814;28;20527;-39
2024/01/02 04:39:24;;;;;;;5.30;2.80;;;;;;;10.00;61.11;100289.34;5045241;28;20052;-39
2024/01/02 04:41:52;;;;;;;10.50;3.67;;;;;;;10.00;61.25;100289.34;5047117;28;20052;-40
2024/01/02 04:44:17;;;;;;;6.60;2.28;;;;;;;10.00;61.22;100290.19;5044757;28;20025;-40
2024/01/02 04:46:42;;;;;;;7.65;2.05;;;;;;;10.01;60.98;100281.38;5042975;28;20039;-40
2024/01/02 04:49:08;;;;;;;5.95;2.55;;;;;;;10.00;60.96;100273.56;5042189;28;20449;-39
2024/01/02 04:51:34;;;;;;;5.38;2.00;;;;;;;9.99;60.81;100272.72;5046884;28;20032;-40
2024/01/02 04:53:59;;;;;;;4.65;1.85;;;;;;;9.98;60.62;100270.22;5043071;28;20021;-40
2024/01/02 04:56:25;;;;;;;6.70;2.45;;;;;;;9.97;60.67;100261.47;5043742;28;20037;-40
2024/01/02 04:58:50;;;;;;;6.70;2.28;;;;;;;9.94;60.81;100261.66;5042398;28;20495;-39
2024/01/02 05:01:16;;;;;;;5.55;2.95;;;;;;;9.93;60.78;100272.28;5042608;28;20029;-39
2024/01/02 05:03:41;;;;;;;8.25;4.22;;;;;;;9.88;60.75;100272.56;5040366;28;20116;-39
2024/01/02 05:06:06;;;;;;;6.78;2.38;;;;;;;9.87;60.61;100266.44;5037392;28;20044;-41
2024/01/02 05:08:34;;;;;;;6.53;2.67;;;;;;;9.87;60.57;100258.56;5041447;28;20902;-40
2024/01/02 05:10:59;;;;;;;5.03;2.20;;;;;;;9.85;60.44;100249.94;5043997;28;20093;-39
2024/01/02 05:13:24;;;;;;;8.85;3.13;;;;;;;9.81;60.66;100255.47;5037971;28;20139;-40
2024/01/02 05:15:50;;;;;;;11.52;4.28;;;;;;;9.80;60.53;100262.53;5040803;28;20048;-39
2024/01/02 05:18:16;;;;;;;9.50;3.40;;;;;;;9.79;60.63;100257.34;5042362;28;20032;-39
2024/01/02 05:20:42;;;;;;;8.43;3.25;;;;;;;9.77;60.76;100252.22;5042380;28;20582;-40
2024/01/02 05:23:07;;;;;;;11.45;3.60;;;;;;;9.74;60.47;100253.25;5038528;28;20407;-39
2024/01/02 05:25:32;;;;;;;5.47;1.90;;;;;;;9.76;60.38;100253.16;5041573;28;20160;-40
2024/01/02 05:27:58;;;;;;;10.20;2.30;;;;;;;9.70;60.54;100249.13;5043044;28;20029;-39
2024/01/02 05:30:24;;;;;;;4.47;2.20;;;;;;;9.69;60.51;100244.81;5038123;28;20403;-40
2024/01/02 05:32:50;;;;;;;6.93;2.00;;;;;;;9.68;60.47;100251.00;5041558;28;20032;-40
2024/01/02 05:35:16;;;;;;;7.53;2.50;;;;;;;9.62;60.58;100246.09;5041761;28;20036;-40
2024/01/02 05:37:41;;;;;;;5.57;2.45;;;;;;;9.55;60.83;100242.19;5044114;28;20037;-40
2024/01/02 05:40:09;;;;;;;8.10;2.17;;;;;;;9.58;60.88;100242.00;5039483;28;20037;-39
2024/01/02 05:42:34;;;;;;;8.40;3.13;;;;;;;9.56;60.92;100238.63;5044205;28;20112;-40
2024/01/02 05:45:00;;;;;;;5.65;2.70;;;;;;;9.53;60.74;100236.19;5041454;28;20179;-39
2024/01/02 05:47:25;;;;;;;5.88;2.33;;;;;;;9.51;60.51;100230.16;5041390;28;20506;-39
2024/01/02 05:49:50;;;;;;;5.07;2.08;;;;;;;9.52;60.52;100234.50;5040349;28;20041;-39
2024/01/02 05:52:17;;;;;;;13.80;4.07;;;;;;;9.48;60.89;100228.59;5043051;28;20028;-39
2024/01/02 05:54:42;;;;;;;3.72;1.85;;;;;;;9.49;60.47;100234.66;5043213;28;20394;-39
2024/01/02 05:57:07;;;;;;;6.28;1.95;;;;;;;9.48;60.61;100214.59;5045315;28;20468;-39
2024/01/02 05:59:34;;;;;;;8.07;1.80;;;;;;;9.45;60.65;100226.13;5048320;28;20052;-39
2024/01/02 06:01:59;;;;;;;7.10;1.83;;;;;;;9.41;60.91;100230.75;5043606;28;20550;-39
2024/01/02 06:04:24;;;;;;;9.90;2.40;;;;;;;9.33;60.72;100227.72;5044507;28;20070;-39
2024/01/02 06:06:50;;;;;;;8.15;1.83;;;;;;;9.37;60.64;100226.63;5046546;28;20040;-39
2024/01/02 06:09:15;;;;;;;5.65;1.58;;;;;;;9.35;60.65;100217.97;5044173;28;20541;-39
2024/01/02 06:11:41;;;;;;;5.57;1.80;;;;;;;9.34;60.87;100218.09;5045230;28;20057;-39
2024/01/02 06:14:06;;;;;;;9.98;1.83;;;;;;;9.32;60.74;100228.66;5048673;28;20520;-39
2024/01/02 06:16:31;;;;;;;6.43;2.00;;;;;;;9.28;60.74;100221.94;5042938;28;20033;-39
2024/01/02 06:18:57;;;;;;;4.57;1.67;;;;;;;9.21;60.67;100213.59;5046903;28;20483;-39
2024/01/02 06:21:22;;;;;;;8.82;2.20;;;;;;;9.22;60.60;100214.41;5046207;28;20025;-38
2024/01/02 06:23:48;;;;;;;5.10;1.90;;;;;;;9.22;60.70;100203.91;5045949;28;20451;-39
2024/01/02 06:26:13;;;;;;;10.90;2.67;;;;;;;9.22;60.86;100201.28;5045003;28;20025;-40
2024/01/02 06:28:38;;;;;;;7.95;2.00;;;;;;;9.13;60.75;100203.53;5049031;28;20037;-39
2024/01/02 06:31:07;;;;;;;10.13;2.42;;;;;;;9.18;60.85;100202.41;5045269;28;20021;-39
2024/01/02 06:33:33;;;;;;;5.95;2.17;;;;;;;9.19;60.85;100198.84;5045758;28;20083;-39
2024/01/02 06:35:59;;;;;;;6.43;1.75;;;;;;;9.17;60.94;100205.97;5047375;28;20041;-39
2024/01/02 06:38:25;;;;;;;11.75;2.85;;;;;;;9.18;60.88;100202.41;5045098;28;20108;-39
2024/01/02 06:40:50;;;;;;;9.38;2.28;;;;;;;9.21;60.90;100192.59;5042817;28;20087;-39
2024/01/02 06:43:15;;;;;;;9.43;2.42;;;;;;;9.18;61.30;100192.75;5043156;28;20455;-39
2024/01/02 06:45:41;;;;;;;7.82;1.70;;;;;;;9.18;60.82;100182.25;5047493;28;20037;-39
2024/01/02 06:48:07;;;;;;;6.43;1.92;;;;;;;9.17;60.99;100174.47;5046296;28;20021;-40
2024/01/02 06:50:32;;;;;;;7.22;2.40;;;;;;;9.13;61.09;100182.56;5041729;28;20041;-40
2024/01/02 06:52:59;;;;;;;5.95;1.52;;;;;;;9.15;60.83;100183.28;5046503;28;20036;-39
2024/01/02 06:55:25;;;;;;;9.07;1.38;;;;;;;9.13;61.01;100179.06;5045375;28;20016;-39
2024/01/02 06:57:51;;;;;;;5.78;1.50;;;;;;;9.14;61.02;100180.75;5044228;28;20108;-39
2024/01/02 07:00:17;;;;;;;5.20;2.33;;;;;;;9.16;60.78;100173.63;5043016;28;20029;-40
2024/01/02 07:02:43;;;;;;;5.82;1.63;;;;;;;9.14;60.71;100176.38;5044615;28;20407;-39
2024/01/02 07:05:12;;;;;;;4.90;1.65;;;;;;;9.15;60.87;100167.53;5046973;28;20037;-39
2024/01/02 07:07:37;;;;;;;8.13;1.90;;;;;;;9.14;60.91;100171.13;5048817;28;20052;-39
2024/01/02 07:10:03;;;;;;;4.70;1.52;;;;;;;9.16;60.68;100168.38;5048067;28;20483;-39
2024/01/02 07:12:28;;;;;;;5.78;1.58;;;;;;;9.15;60.82;100162.28;5044619;28;20403;-39
2024/01/02 07:14:54;;;;;;;8.52;2.63;;;;;;;9.13;60.93;100169.44;5041891;28;20170;-40
2024/01/02 07:17:21;;;;;;;11.25;5.47;;;;;;;9.15;60.77;100166.69;5045463;28;20051;-39
2024/01/02 07:19:46;;;;;;;23.42;8.80;;;;;;;9.15;60.62;100157.03;5045223;28;20029;-39
2024/01/02 07:22:12;;;;;;;11.82;4.65;;;;;;;9.14;60.79;100160.63;5045936;28;20051;-39
2024/01/02 07:24:37;;;;;;;7.95;2.25;;;;;;;9.12;60.90;100157.25;5042490;28;20033;-39
2024/01/02 07:27:02;;;;;;;7.85;2.17;;;;;;;9.13;60.76;100161.56;5040969;28;20967;-39
2024/01/02 07:29:28;;;;;;;8.48;2.70;;;;;;;9.11;60.68;100157.31;5043379;28;20041;-39
2024/01/02 07:31:53;;;;;;;7.07;2.22;;;;;;;9.10;60.79;100153.84;5042345;28;20032;-39
2024/01/02 07:34:19;;;;;;;6.57;1.92;;;;;;;9.08;60.65;100160.97;5040714;28;20035;-39
2024/01/02 07:36:44;;;;;;;4.72;2.03;;;;;;;9.09;60.88;100161.81;5044057;28;20029;-39
2024/01/02 07:39:09;;;;;;;7.72;1.80;;;;;;;9.06;60.78;100147.09;5044636;28;20036;-40
2024/01/02 07:41:35;;;;;;;5.43;2.47;;;;;;;9.07;60.67;100146.16;5043478;28;20125;-39
2024/01/02 07:44:00;;;;;;;7.20;2.05;;;;;;;9.06;60.67;100144.47;5044499;28;20652;-39
2024/01/02 07:46:27;;;;;;;9.80;2.10;;;;;;;9.00;61.14;100140.44;5033146;28;20095;-39
2024/01/02 07:48:52;;;;;;;10.90;2.50;;;;;;;9.03;61.35;100147.28;5041137;28;20036;-40
2024/01/02 07:51:18;;;;;;;9.57;3.25;;;;;;;9.00;61.38;100140.44;5038178;28;20033;-40
2024/01/02 07:53:43;;;;;;;11.07;2.92;;;;;;;9.02;61.32;100137.72;5042850;28;20053;-38
2024/01/02 07:56:09;;;;;;;9.23;2.72;;;;;;;8.99;61.35;100122.19;5044059;28;20429;-40
2024/01/02 07:58:34;;;;;;;7.60;2.20;;;;;;;8.95;61.51;100128.56;5041331;28;20506;-39
2024/01/02 08:01:00;;;;;;;5.63;1.73;;;;;;;8.95;61.44;100123.31;5039634;28;20047;-40
2024/01/02 08:03:25;;;;;;;7.22;1.98;;;;;;;8.94;61.42;100126.84;5041320;28;20031;-39
2024/01/02 08:05:50;;;;;;;4.75;1.45;;;;;;;9.00;61.55;100121.22;5042252;28;20060;-39
2024/01/02 08:08:16;;;;;;;8.18;1.73;;;;;;;9.03;61.42;100110.53;5047209;28;20028;-39
2024/01/02 08:10:42;;;;;;;10.63;2.75;;;;;;;9.06;61.28;100112.97;5047459;28;20064;-39
2024/01/02 08:13:07;;;;;;;4.10;1.88;;;;;;;9.09;61.39;100114.56;5044533;28;20033;-39
2024/01/02 08:15:32;;;;;;;12.38;4.15;;;;;;;9.11;61.43;100117.94;5039971;28;20159;-40
2024/01/02 08:17:58;;;;;;;15.35;3.65;;;;;;;9.09;61.47;100115.41;5040115;28;20119;-39
2024/01/02 08:20:23;;;;;;;11.45;2.13;;;;;;;9.13;61.56;100108.19;5043204;28;20478;-39
2024/01/02 08:22:48;;;;;;;6.07;2.28;;;;;;;9.12;61.62;100094.25;5041333;28;20459;-39
2024/01/02 08:25:14;;;;;;;8.98;3.30;;;;;;;9.09;61.34;100096.19;5045547;28;20036;-39
2024/01/02 08:27:39;;;;;;;14.15;4.57;;;;;;;9.08;61.50;100087.50;5046838;28;20024;-39
2024/01/02 08:30:05;;;;;;;12.52;3.47;;;;;;;9.12;61.61;100083.75;5042616;28;20091;-40
2024/01/02 08:32:31;;;;;;;13.05;3.15;;;;;;;8.98;61.41;100078.50;5059433;28;20037;-39
2024/01/02 08:34:57;;;;;;;12.98;3.50;;;;;;;8.87;61.19;100078.31;5041603;28;20028;-39
2024/01/02 08:37:22;;;;;;;10.60;3.42;;;;;;;8.96;61.49;100075.13;5038059;28;20037;-39
2024/01/02 08:39:48;;;;;;;8.85;3.50;;;;;;;9.04;61.71;100070.25;5045171;28;20060;-39
2024/01/02 08:42:14;;;;;;;7.80;3.47;;;;;;;9.12;61.74;100068.00;5041104;28;20051;-39
2024/01/02 08:44:40;;;;;;;9.10;3.40;;;;;;;9.11;61.45;100070.69;5044536;28;20479;-40
2024/01/02 08:47:05;;;;;;;7.18;3.05;;;;;;;9.19;61.49;100055.31;5045487;28;20020;-39
2024/01/02 08:49:31;;;;;;;7.68;1.17;;;;;;;9.17;60.97;100057.19;5045023;28;20040;-39
2024/01/02 08:51:56;;;;;;;44.78;6.68;;;;;;;9.14;61.68;100065.25;5043802;28;20035;-39
2024/01/02 08:54:21;;;;;;;121.95;22.45;;;;;;;9.17;61.76;100057.19;5043865;28;20033;-39
2024/01/02 08:56:47;;;;;;;9.38;2.50;;;;;;;9.20;61.59;100059.63;5050094;28;20039;-39
2024/01/02 08:59:12;;;;;;;6.97;2.45;;;;;;;9.18;61.59;100044.91;5045746;28;20499;-40
2024/01/02 09:01:37;;;;;;;9.80;3.13;;;;;;;9.23;61.77;100041.03;5042061;28;20113;-39
2024/01/02 09:04:04;;;;;;;10.30;2.53;;;;;;;9.30;61.57;100046.78;5045690;28;20059;-39
2024/01/02 09:06:29;;;;;;;8.80;2.17;;;;;;;9.27;61.65;100044.34;5036750;28;20116;-40
2024/01/02 09:08:57;;;;;;;5.82;2.28;;;;;;;9.31;61.50;100045.81;5045954;28;20051;-39
2024/01/02 09:11:24;;;;;;;16.70;7.30;;;;;;;9.33;61.68;100038.69;5044035;28;20028;-40
2024/01/02 09:13:49;;;;;;;21.33;5.80;;;;;;;9.40;61.01;100040.00;5059623;28;20091;-40
2024/01/02 09:16:15;;;;;;;15.00;5.55;;;;;;;9.48;61.51;100036.00;5040089;28;20033;-39
2024/01/02 09:18:41;;;;;;;7.45;3.72;;;;;;;9.51;61.15;100035.81;5046319;28;20033;-39
2024/01/02 09:21:06;;;;;;;46.53;8.38;;;;;;;9.57;61.16;100027.56;5043782;28;20048;-39
2024/01/02 09:23:34;;;;;;;12.75;3.90;;;;;;;9.58;61.28;100031.88;5039660;28;20052;-39
2024/01/02 09:26:01;;;;;;;8.82;3.05;;;;;;;9.61;61.20;100021.13;5044556;28;20029;-40
2024/01/02 09:28:30;;;;;;;9.45;4.30;;;;;;;9.59;60.91;100017.81;5046748;28;20060;-40
2024/01/02 09:30:56;;;;;;;13.80;3.60;;;;;;;9.54;61.09;100009.38;5045788;28;20388;-40
2024/01/02 09:33:23;;;;;;;9.45;3.63;;;;;;;9.59;61.15;100002.03;5047175;28;20533;-39
2024/01/02 09:35:48;;;;;;;7.82;2.40;;;;;;;9.59;61.03;100002.03;5053494;28;20078;-39
2024/01/02 09:38:15;;;;;;;10.77;3.85;;;;;;;9.62;61.02;100001.81;5050459;28;20048;-40
2024/01/02 09:41:02;;;;;;;12.43;3.50;;;;;;;9.64;60.86;100004.34;5047674;28;20032;-40
2024/01/02 09:43:36;;;;;;;10.05;3.00;;;;;;;9.71;60.88;99995.97;5047449;28;20552;-39
2024/01/02 09:46:22;;;;;;;10.23;3.00;;;;;;;9.83;60.94;99996.09;5046752;28;20047;-39
2024/01/02 09:49:26;;;;;;;14.48;2.97;;;;;;;9.85;60.93;99994.22;5046728;28;20472;-39
2024/01/02 09:52:27;;;;;;;13.70;2.72;;;;;;;9.83;60.66;99982.97;5030562;28;20473;-39
2024/01/02 09:55:11;;;;;;;15.20;3.55;;;;;;;9.68;60.14;99980.41;5042059;28;20513;-40
2024/01/02 09:57:54;;;;;;;10.18;2.70;;;;;;;9.64;60.54;99973.66;5048277;28;20715;-39
2024/01/02 10:00:45;;;;;;;9.95;3.42;;;;;;;9.75;60.80;99970.34;5046163;28;20035;-39
2024/01/02 10:03:29;;;;;;;12.15;2.78;;;;;;;9.77;61.09;99968.44;5047407;28;20065;-40
2024/01/02 10:06:25;;;;;;;5.53;1.80;;;;;;;9.79;60.49;99958.69;5022607;28;20207;-41
2024/01/02 10:09:31;;;;;;;9.70;3.00;;;;;;;9.81;60.70;99959.44;5037366;28;20028;-40
2024/01/02 10:12:19;;;;;;;11.45;2.58;;;;;;;9.77;60.27;99971.06;5039486;28;20083;-40
2024/01/02 10:15:13;;;;;;;10.98;3.08;;;;;;;9.85;60.51;99952.16;5046717;28;20048;-39
2024/01/02 10:18:06;;;;;;;16.10;2.67;;;;;;;9.94;60.76;99948.09;5044937;28;20079;-40
2024/01/02 10:20:40;;;;;;;12.52;2.85;;;;;;;10.03;60.70;99936.94;5046829;28;20032;-40
2024/01/02 10:23:32;;;;;;;9.18;2.67;;;;;;;10.12;60.55;99936.31;5045487;28;20025;-40
2024/01/02 10:26:01;;;;;;;10.27;2.80;;;;;;;10.06;60.61;99928.84;5044669;28;20025;-40
2024/01/02 10:28:27;;;;;;;17.48;6.07;;;;;;;10.02;60.40;99924.72;5042021;28;20158;-40
2024/01/02 10:31:06;;;;;;;11.95;4.13;;;;;;;10.09;60.36;99919.88;5041244;28;20509;-40
2024/01/02 10:33:39;;;;;;;13.98;3.85;;;;;;;10.08;60.51;99908.56;5045393;28;20064;-39
2024/01/02 10:36:12;;;;;;;7.55;3.45;;;;;;;10.01;60.54;99902.88;5046650;28;20020;-40
2024/01/02 10:38:56;;;;;;;13.95;3.20;;;;;;;10.02;60.18;99898.44;5050621;28;20063;-40
2024/01/02 10:41:29;;;;;;;13.20;2.83;;;;;;;9.75;60.31;99900.25;5043766;28;20029;-40
2024/01/02 10:44:27;;;;;;;13.32;3.60;;;;;;;9.87;60.47;99890.69;5050156;28;20056;-39
2024/01/02 10:47:01;;;;;;;15.60;3.55;;;;;;;9.83;60.58;99885.75;5042878;28;20028;-40
2024/01/02 10:49:35;;;;;;;6.50;2.35;;;;;;;9.69;59.61;99887.53;5049362;28;20099;-40
2024/01/02 10:52:42;;;;;;;9.52;2.50;;;;;;;9.72;60.15;99875.97;5048696;28;20022;-40
2024/01/02 10:55:23;;;;;;;10.13;3.45;;;;;;;9.72;60.46;99873.31;5002487;28;20067;-40
2024/01/02 10:58:15;;;;;;;7.57;2.53;;;;;;;9.78;60.31;99870.28;5045836;28;20020;-39
2024/01/02 11:01:08;;;;;;;7.78;2.63;;;;;;;9.79;60.29;99869.34;5044561;28;20029;-39
2024/01/02 11:03:49;;;;;;;16.05;3.13;;;;;;;9.82;60.34;99857.78;5043896;28;20047;-39
2024/01/02 11:06:45;;;;;;;10.25;3.47;;;;;;;9.93;60.29;99857.88;5045509;28;20025;-39
2024/01/02 11:09:46;;;;;;;12.45;2.72;;;;;;;9.90;60.00;99858.94;5016057;28;20462;-40
2024/01/02 11:12:14;;;;;;;8.30;2.95;;;;;;;9.98;60.26;99847.91;4997617;28;20041;-39
2024/01/02 11:14:42;;;;;;;8.85;2.13;;;;;;;10.03;59.90;99842.31;5041215;28;20470;-40
2024/01/02 11:17:12;;;;;;;9.50;2.47;;;;;;;10.00;59.88;99843.38;5045971;28;20043;-39
2024/01/02 11:19:51;;;;;;;7.43;2.20;;;;;;;9.95;60.20;99839.38;5037701;28;20035;-39
2024/01/02 11:22:28;;;;;;;30.85;11.38;;;;;;;9.97;60.02;99832.25;5039895;28;20037;-40
2024/01/02 11:25:03;;;;;;;10.52;4.40;;;;;;;10.00;60.53;99827.59;5041215;28;20112;-40
2024/01/02 11:27:30;;;;;;;7.53;3.08;;;;;;;10.09;60.20;99820.00;5032902;28;20687;-40
2024/01/02 11:29:56;;;;;;;9.15;3.38;;;;;;;10.01;60.50;99818.78;5046594;28;20036;-39
2024/01/02 11:32:43;;;;;;;4.13;2.17;;;;;;;10.12;60.48;99812.78;5042941;28;20090;-39
2024/01/02 11:35:09;;;;;;;8.77;2.92;;;;;;;10.12;60.55;99810.13;5037420;28;20025;-40